createdAt,value
2019-03-10T00:01:16.945Z,11.10
2019-03-10T00:04:14.078Z,10.90
2019-03-10T00:06:48.684Z,10.80
2019-03-10T00:09:53.537Z,10.90
2019-03-10T00:12:28.596Z,11.10
2019-03-10T00:15:00.507Z,11.00
2019-03-10T00:17:31.992Z,11.00
2019-03-10T00:20:05.419Z,10.90
2019-03-10T00:23:30.162Z,11.00
2019-03-10T00:26:04.670Z,11.00
2019-03-10T00:29:24.452Z,11.20
2019-03-10T00:31:14.552Z,11.00
2019-03-10T00:33:51.637Z,10.90
2019-03-10T00:36:31.549Z,11.10
2019-03-10T00:39:59.787Z,11.10
2019-03-10T00:42:48.348Z,10.90
2019-03-10T00:48:53.208Z,10.60
2019-03-10T00:54:40.252Z,11.00
2019-03-10T00:57:57.937Z,10.90
2019-03-10T01:00:34.875Z,11.20
2019-03-10T01:03:05.584Z,11.50
2019-03-10T01:05:40.742Z,11.70
2019-03-10T01:08:11.554Z,11.70
2019-03-10T01:11:22.097Z,11.70
2019-03-10T01:13:55.015Z,11.50
2019-03-10T01:16:33.259Z,11.50
2019-03-10T01:19:07.868Z,11.60
2019-03-10T01:21:42.813Z,11.80
2019-03-10T01:24:14.617Z,11.60
2019-03-10T01:26:53.208Z,11.70
2019-03-10T01:29:24.384Z,11.70
2019-03-10T01:32:46.110Z,11.60
2019-03-10T01:35:23.143Z,11.80
2019-03-10T01:37:57.154Z,11.90
2019-03-10T01:40:30.773Z,12.00
2019-03-10T01:43:05.874Z,12.20
2019-03-10T01:45:38.830Z,10.40
2019-03-10T01:48:08.535Z,12.20
2019-03-10T01:51:34.623Z,12.20
2019-03-10T01:54:07.429Z,12.20
2019-03-10T02:03:04.639Z,12.20
2019-03-10T02:09:49.868Z,11.90
2019-03-10T02:12:23.188Z,11.90
2019-03-10T02:15:40.836Z,12.10
2019-03-10T02:18:15.304Z,12.10
2019-03-10T02:20:47.697Z,11.10
2019-03-10T02:23:52.203Z,11.20
2019-03-10T02:26:24.266Z,12.60
2019-03-10T02:28:56.967Z,13.60
2019-03-10T02:31:31.413Z,11.30
2019-03-10T02:34:05.015Z,13.30
2019-03-10T02:36:40.877Z,11.30
2019-03-10T02:42:04.398Z,11.40
2019-03-10T02:44:35.164Z,11.70
2019-03-10T02:47:54.904Z,11.80
2019-03-10T02:50:28.722Z,11.90
2019-03-10T02:53:02.521Z,12.10
2019-03-10T02:55:42.587Z,12.10
2019-03-10T02:58:11.421Z,12.00
2019-03-10T03:00:45.833Z,12.10
2019-03-10T03:03:18.292Z,12.10
2019-03-10T03:05:50.584Z,12.00
2019-03-10T03:09:06.501Z,12.10
2019-03-10T03:11:39.099Z,12.10
2019-03-10T03:14:11.908Z,11.90
2019-03-10T03:16:43.942Z,11.90
2019-03-10T03:19:17.059Z,12.00
2019-03-10T03:22:02.712Z,12.10
2019-03-10T03:24:35.070Z,12.10
2019-03-10T03:29:58.092Z,12.00
2019-03-10T03:35:46.391Z,12.00
2019-03-10T03:41:28.997Z,11.90
2019-03-10T03:44:31.832Z,8.90
2019-03-10T03:47:03.755Z,11.50
2019-03-10T03:49:36.390Z,11.60
2019-03-10T03:52:14.315Z,11.80
2019-03-10T03:54:47.407Z,11.90
2019-03-10T03:57:19.381Z,11.90
2019-03-10T03:59:51.968Z,12.00
2019-03-10T04:02:26.433Z,12.00
2019-03-10T04:05:22.197Z,11.90
2019-03-10T04:07:53.215Z,11.90
2019-03-10T04:10:24.271Z,11.90
2019-03-10T04:13:36.465Z,11.80
2019-03-10T04:16:13.528Z,11.80
2019-03-10T04:18:44.395Z,11.70
2019-03-10T04:21:23.563Z,11.80
2019-03-10T04:23:56.454Z,11.60
2019-03-10T04:27:13.725Z,11.60
2019-03-10T04:29:43.991Z,11.70
2019-03-10T04:35:07.744Z,11.80
2019-03-10T04:37:40.205Z,11.80
2019-03-10T04:40:52.415Z,11.50
2019-03-10T04:43:27.033Z,11.40
2019-03-10T04:45:56.880Z,11.10
2019-03-10T04:49:14.817Z,11.10
2019-03-10T04:51:44.373Z,11.30
2019-03-10T04:57:01.676Z,11.50
2019-03-10T04:59:31.854Z,11.30
2019-03-10T05:02:10.401Z,11.10
2019-03-10T05:04:42.811Z,11.00
2019-03-10T05:07:13.420Z,11.30
2019-03-10T05:10:26.520Z,11.40
2019-03-10T05:13:00.165Z,11.60
2019-03-10T05:15:32.547Z,11.60
2019-03-10T05:18:09.852Z,11.50
2019-03-10T05:20:44.028Z,11.50
2019-03-10T05:26:21.476Z,11.50
2019-03-10T05:29:34.937Z,11.80
2019-03-10T05:32:09.484Z,11.60
2019-03-10T05:34:41.353Z,11.60
2019-03-10T05:37:16.799Z,11.60
2019-03-10T05:39:47.646Z,11.70
2019-03-10T05:42:54.841Z,11.70
2019-03-10T05:45:25.581Z,11.70
2019-03-10T05:47:58.370Z,11.60
2019-03-10T05:51:12.753Z,11.60
2019-03-10T05:53:41.720Z,11.60
2019-03-10T05:56:10.578Z,11.50
2019-03-10T05:58:45.586Z,11.40
2019-03-10T06:01:14.569Z,10.90
2019-03-10T06:04:10.854Z,10.60
2019-03-10T06:06:39.669Z,10.50
2019-03-10T06:09:10.266Z,10.50
2019-03-10T06:12:15.834Z,10.50
2019-03-10T06:14:44.711Z,10.40
2019-03-10T06:17:56.981Z,10.00
2019-03-10T06:20:26.161Z,9.90
2019-03-10T06:22:55.174Z,9.90
2019-03-10T06:25:24.374Z,9.70
2019-03-10T06:27:54.863Z,9.50
2019-03-10T06:31:08.854Z,9.40
2019-03-10T06:33:37.647Z,9.30
2019-03-10T06:36:48.740Z,9.40
2019-03-10T06:39:17.752Z,9.40
2019-03-10T06:41:46.709Z,9.40
2019-03-10T06:45:07.093Z,11.60
2019-03-10T06:47:35.987Z,9.40
2019-03-10T06:50:38.221Z,9.50
2019-03-10T06:53:07.071Z,9.70
2019-03-10T06:56:15.261Z,10.00
2019-03-10T06:58:44.343Z,10.50
2019-03-10T07:01:13.451Z,11.10
2019-03-10T07:04:15.556Z,11.40
2019-03-10T07:06:46.923Z,11.30
2019-03-10T07:09:51.721Z,11.60
2019-03-10T07:12:21.554Z,11.90
2019-03-10T07:14:53.967Z,12.00
2019-03-10T07:17:37.202Z,12.20
2019-03-10T07:20:09.326Z,12.40
2019-03-10T07:23:18.607Z,12.50
2019-03-10T07:26:11.709Z,12.60
2019-03-10T07:29:07.275Z,12.60
2019-03-10T07:31:38.331Z,12.70
2019-03-10T07:35:04.076Z,12.60
2019-03-10T07:37:52.321Z,12.70
2019-03-10T07:43:34.273Z,13.10
2019-03-10T07:46:06.830Z,13.10
2019-03-10T07:48:48.796Z,13.20
2019-03-10T07:51:23.182Z,13.00
2019-03-10T07:57:07.003Z,14.90
2019-03-10T08:00:30.102Z,12.90
2019-03-10T08:03:36.233Z,12.70
2019-03-10T08:06:10.806Z,12.20
2019-03-10T08:09:03.903Z,12.00
2019-03-10T08:14:51.694Z,12.30
2019-03-10T08:20:25.425Z,12.70
2019-03-10T08:23:54.419Z,12.80
2019-03-10T08:26:35.200Z,12.70
2019-03-10T08:29:46.204Z,12.80
2019-03-10T08:32:24.274Z,13.00
2019-03-10T08:35:24.000Z,13.00
2019-03-10T08:38:02.160Z,12.80
2019-03-10T08:41:25.552Z,12.60
2019-03-10T08:44:12.752Z,9.60
2019-03-10T08:46:57.408Z,12.20
2019-03-10T08:49:30.786Z,12.40
2019-03-10T08:52:04.124Z,12.70
2019-03-10T08:54:37.200Z,12.50
2019-03-10T08:57:12.141Z,12.40
2019-03-10T09:00:37.385Z,12.40
2019-03-10T09:03:18.455Z,12.60
2019-03-10T09:06:01.344Z,12.70
2019-03-10T09:08:51.591Z,14.50
2019-03-10T09:11:44.776Z,13.00
2019-03-10T09:14:32.468Z,13.10
2019-03-10T09:17:59.906Z,13.50
2019-03-10T09:20:41.271Z,13.50
2019-03-10T09:23:28.989Z,13.40
2019-03-10T09:26:20.399Z,13.40
2019-03-10T09:32:10.592Z,14.00
2019-03-10T09:37:36.927Z,14.00
2019-03-10T09:40:44.344Z,14.40
2019-03-10T09:43:28.739Z,14.40
2019-03-10T09:46:33.343Z,14.40
2019-03-10T09:49:05.367Z,14.50
2019-03-10T09:52:14.142Z,14.30
2019-03-10T09:55:05.195Z,13.80
2019-03-10T09:58:31.193Z,13.50
2019-03-10T10:01:15.749Z,13.40
2019-03-10T10:04:41.136Z,13.50
2019-03-10T10:07:12.765Z,13.50
2019-03-10T10:10:31.464Z,13.90
2019-03-10T10:13:12.559Z,13.80
2019-03-10T10:16:10.956Z,14.10
2019-03-10T10:18:50.871Z,16.10
2019-03-10T10:22:02.339Z,14.30
2019-03-10T10:24:42.537Z,14.60
2019-03-10T10:27:26.031Z,14.50
2019-03-10T10:29:56.531Z,14.40
2019-03-10T10:32:34.960Z,14.10
2019-03-10T10:35:13.246Z,14.20
2019-03-10T10:40:29.970Z,14.00
2019-03-10T10:43:04.456Z,14.00
2019-03-10T10:46:12.035Z,16.50
2019-03-10T10:48:44.987Z,14.40
2019-03-10T10:54:19.420Z,14.30
2019-03-10T10:57:41.062Z,14.60
2019-03-10T11:00:29.427Z,14.60
2019-03-10T11:03:32.515Z,14.50
2019-03-10T11:06:09.455Z,14.30
2019-03-10T11:11:45.494Z,14.70
2019-03-10T11:15:11.500Z,14.60
2019-03-10T11:17:50.738Z,14.60
2019-03-10T11:21:09.197Z,14.80
2019-03-10T11:23:39.646Z,16.40
2019-03-10T11:27:06.100Z,14.70
2019-03-10T11:29:40.641Z,14.70
2019-03-10T11:32:14.125Z,15.50
2019-03-10T11:34:47.192Z,14.50
2019-03-10T11:37:32.997Z,14.40
2019-03-10T11:40:03.773Z,15.50
2019-03-10T11:42:44.585Z,14.60
2019-03-10T11:45:35.699Z,14.70
2019-03-10T11:48:10.407Z,14.80
2019-03-10T11:50:50.214Z,15.00
2019-03-10T11:53:28.601Z,15.10
2019-03-10T11:56:01.719Z,14.80
2019-03-10T11:58:38.790Z,14.40
2019-03-10T12:01:26.667Z,14.10
2019-03-10T12:03:57.709Z,14.20
2019-03-10T12:06:34.198Z,14.20
2019-03-10T12:09:07.392Z,14.40
2019-03-10T12:11:36.627Z,14.30
2019-03-10T12:14:05.545Z,14.40
2019-03-10T12:16:34.417Z,14.40
2019-03-10T12:19:04.331Z,14.50
2019-03-10T12:21:49.870Z,15.00
2019-03-10T12:24:21.800Z,14.90
2019-03-10T12:26:51.045Z,14.80
2019-03-10T12:29:24.361Z,14.50
2019-03-10T12:31:59.684Z,14.60
2019-03-10T12:34:31.924Z,14.30
2019-03-10T12:37:01.327Z,14.10
2019-03-10T12:39:32.607Z,14.30
2019-03-10T12:42:03.352Z,14.30
2019-03-10T12:45:01.128Z,14.30
2019-03-10T12:47:40.188Z,13.90
2019-03-10T12:50:15.679Z,13.70
2019-03-10T12:52:48.146Z,13.80
2019-03-10T12:55:21.559Z,13.90
2019-03-10T12:58:05.193Z,13.90
2019-03-10T13:00:28.186Z,14.10
2019-03-10T13:03:02.585Z,14.30
2019-03-10T13:05:33.021Z,14.20
2019-03-10T13:08:11.095Z,16.20
2019-03-10T13:10:46.215Z,14.30
2019-03-10T13:13:22.473Z,14.10
2019-03-10T13:15:58.712Z,13.90
2019-03-10T13:18:28.942Z,13.70
2019-03-10T13:21:06.620Z,13.70
2019-03-10T13:23:37.366Z,14.10
2019-03-10T13:26:08.524Z,13.90
2019-03-10T13:28:44.621Z,14.00
2019-03-10T13:31:15.150Z,14.20
2019-03-10T13:33:45.771Z,14.00
2019-03-10T13:36:17.331Z,13.80
2019-03-10T13:38:47.894Z,13.70
2019-03-10T13:41:18.565Z,13.90
2019-03-10T13:43:51.330Z,13.80
2019-03-10T13:46:24.029Z,13.80
2019-03-10T13:48:57.369Z,13.60
2019-03-10T13:51:29.078Z,13.90
2019-03-10T13:54:03.593Z,14.20
2019-03-10T13:56:36.614Z,14.20
2019-03-10T13:59:16.388Z,14.30
2019-03-10T14:02:03.094Z,14.20
2019-03-10T14:04:38.257Z,13.70
2019-03-10T14:07:11.654Z,13.40
2019-03-10T14:09:50.310Z,13.50
2019-03-10T14:12:24.694Z,13.70
2019-03-10T14:15:02.281Z,13.30
2019-03-10T14:17:33.770Z,13.00
2019-03-10T14:20:04.231Z,13.00
2019-03-10T14:22:33.714Z,13.00
2019-03-10T14:25:54.780Z,13.20
2019-03-10T14:28:23.804Z,13.40
2019-03-10T14:31:27.501Z,13.50
2019-03-10T14:34:03.874Z,12.90
2019-03-10T14:37:03.157Z,13.00
2019-03-10T14:39:35.445Z,13.40
2019-03-10T14:42:39.365Z,13.30
2019-03-10T14:45:16.697Z,13.30
2019-03-10T14:48:22.240Z,13.20
2019-03-10T14:50:53.887Z,13.60
2019-03-10T14:53:47.736Z,13.30
2019-03-10T14:56:21.758Z,12.90
2019-03-10T14:59:36.189Z,13.10
2019-03-10T15:02:15.026Z,12.80
2019-03-10T15:05:28.715Z,11.90
2019-03-10T15:08:11.094Z,11.80
2019-03-10T15:10:40.145Z,12.20
2019-03-10T15:13:13.367Z,11.70
2019-03-10T15:16:22.482Z,10.50
2019-03-10T15:18:53.050Z,9.30
2019-03-10T15:22:14.422Z,9.40
2019-03-10T15:24:48.298Z,9.10
2019-03-10T15:27:48.395Z,9.30
2019-03-10T15:30:23.359Z,9.20
2019-03-10T15:35:53.082Z,9.30
2019-03-10T15:38:23.994Z,8.70
2019-03-10T15:41:26.159Z,8.60
2019-03-10T15:43:53.439Z,8.80
2019-03-10T15:46:58.752Z,9.10
2019-03-10T15:49:43.215Z,8.80
2019-03-10T15:53:01.434Z,8.90
2019-03-10T15:55:42.437Z,8.80
2019-03-10T15:58:43.402Z,9.00
2019-03-10T16:01:12.969Z,9.00
2019-03-10T16:04:32.753Z,9.20
2019-03-10T16:07:16.256Z,9.20
2019-03-10T16:20:36.890Z,8.70
2019-03-10T16:23:11.259Z,8.70
2019-03-10T16:28:54.101Z,8.10
2019-03-10T16:34:15.319Z,8.70
2019-03-10T16:36:52.990Z,8.50
2019-03-10T16:39:29.976Z,8.00
2019-03-10T16:42:00.010Z,8.00
2019-03-10T16:45:03.202Z,8.20
2019-03-10T20:33:22.169Z,7.80
2019-03-10T20:35:56.973Z,7.70
2019-03-10T20:38:26.326Z,6.80
2019-03-10T20:41:05.638Z,6.50
2019-03-10T20:43:44.197Z,6.60
2019-03-10T20:46:22.846Z,6.80
2019-03-10T20:49:00.968Z,6.70
2019-03-10T20:51:41.203Z,6.30
2019-03-10T20:54:32.204Z,7.00
2019-03-10T20:57:01.727Z,6.10
2019-03-10T20:59:36.942Z,6.30
2019-03-10T21:02:13.079Z,6.70
2019-03-10T21:04:47.408Z,6.80
2019-03-10T21:07:24.702Z,6.80
2019-03-10T21:10:03.090Z,3.40
2019-03-10T21:12:43.234Z,6.90
2019-03-10T21:15:35.511Z,7.00
2019-03-10T21:18:06.285Z,7.10
2019-03-10T21:20:36.319Z,6.90
2019-03-10T21:23:09.644Z,6.90
2019-03-10T21:25:50.102Z,6.80
2019-03-10T21:28:21.219Z,6.80
2019-03-10T21:30:52.137Z,6.30
2019-03-10T21:33:23.794Z,6.60
2019-03-10T21:36:02.168Z,6.50
2019-03-10T21:38:34.743Z,6.30
2019-03-10T21:41:13.681Z,4.30
2019-03-10T21:43:38.489Z,6.20
2019-03-10T21:46:09.076Z,6.30
2019-03-10T21:48:42.824Z,6.40
2019-03-10T21:51:33.746Z,6.60
2019-03-10T21:53:56.545Z,7.10
2019-03-10T21:56:26.045Z,7.50
2019-03-10T21:59:02.204Z,7.60
2019-03-10T22:01:37.534Z,7.80
2019-03-10T22:04:11.822Z,7.50
2019-03-10T22:06:44.085Z,7.00
2019-03-10T22:09:17.146Z,6.80
2019-03-10T22:11:49.477Z,6.70
2019-03-10T22:14:19.795Z,6.80
2019-03-10T22:16:55.324Z,6.90
2019-03-10T22:19:31.293Z,7.30
2019-03-10T22:22:09.570Z,7.10
2019-03-10T22:24:41.656Z,7.10
2019-03-10T22:27:18.214Z,7.10
2019-03-10T22:29:52.334Z,7.20
2019-03-10T22:32:25.849Z,6.70
2019-03-10T22:34:55.089Z,6.90
2019-03-10T22:37:24.259Z,7.10
2019-03-10T22:39:53.340Z,7.00
2019-03-10T22:42:23.757Z,6.90
2019-03-10T22:44:53.192Z,6.80
2019-03-10T22:47:22.317Z,6.30
2019-03-10T22:49:57.233Z,6.60
2019-03-10T22:52:26.391Z,6.80
2019-03-10T22:54:57.078Z,6.60
2019-03-10T22:57:29.544Z,6.50
2019-03-10T23:00:00.939Z,6.70
2019-03-10T23:02:34.750Z,7.20
2019-03-10T23:05:07.207Z,7.60
2019-03-10T23:07:38.595Z,6.80
2019-03-10T23:10:13.549Z,7.00
2019-03-10T23:12:47.357Z,6.90
2019-03-10T23:15:20.803Z,6.70
2019-03-10T23:17:55.460Z,6.70
2019-03-10T23:20:27.360Z,7.40
2019-03-10T23:22:57.171Z,7.10
2019-03-10T23:25:33.727Z,7.00
2019-03-10T23:28:05.540Z,7.10
2019-03-10T23:30:35.193Z,6.70
2019-03-10T23:33:07.956Z,6.60
2019-03-10T23:35:36.931Z,6.80
2019-03-10T23:38:12.188Z,6.70
2019-03-10T23:40:43.029Z,7.20
2019-03-10T23:43:16.859Z,7.30
2019-03-10T23:45:49.300Z,7.10
2019-03-10T23:48:22.719Z,7.30
2019-03-10T23:50:53.179Z,7.50
2019-03-10T23:53:29.175Z,7.40
2019-03-10T23:56:03.421Z,7.70
2019-03-10T23:58:38.346Z,7.70
